Current Conditions
Clear
Conditions



Pressure
1016.92 (hPa) - 30.03 (inHG)
Visibility

6.2 (miles) - 10.0 (km)
   Temperature
14  °C
57°F
10  °C
Dewpoint
77  %
 Humidity
   Wind Speed
6  mph
5  kts
10  km/h
2.7  m/s
   Wind Direction
 260°
Due West
   Airport Data
EGTK
Location Oxford (Kidlington) Airport 16 mi (26km)
Metar :EGTK 022050Z 26005KT CAVOK 14/10 Q1017
Sat 2nd July 20:50 pm
   Raw Metar Info
Raw METAR is the most common format in the world for the transmission of observational weather data. It is highly standardized through the International Civil Aviation Organization (ICAO), which allows it to be understood throughout most of the world.
   API Info
Data Provided by
https://www.checkwx.com/weather/
   © Info
CSS/SVG/PHP scripts were developed by weather34.com for use in the weather34 template © 2015-2022

Guide Info provided by Metar-Wikipedia